Time;durP1;ratioP1;P1;durP2;ratioP2;P2;SDS_P1;SDS_P2;PMS_P1;PMS_P2;Temp;Humidity;BMP_temperature;BMP_pressure;BME280_temperature;BME280_humidity;BME280_pressure;Samples;Min_cycle;Max_cycle;Signal;HPM_P1;HPM_P2
2022/08/15 00:00:17;;;;;;;1.47;0.90;;;24.90;73.70;;;;;;5009402;28;20499;-77
2022/08/15 00:02:47;;;;;;;1.77;1.40;;;24.90;73.50;;;;;;5013779;28;20485;-76
2022/08/15 00:05:19;;;;;;;1.50;0.90;;;24.90;73.40;;;;;;5008827;28;21026;-76
2022/08/15 00:07:47;;;;;;;1.40;0.87;;;24.80;73.50;;;;;;5013000;28;20503;-76
2022/08/15 00:10:14;;;;;;;1.43;0.90;;;24.80;73.60;;;;;;5009232;28;20555;-76
2022/08/15 00:12:41;;;;;;;1.47;0.87;;;24.80;73.40;;;;;;5013378;28;21114;-76
2022/08/15 00:15:12;;;;;;;1.43;0.90;;;24.80;73.60;;;;;;5010867;28;20854;-76
2022/08/15 00:17:40;;;;;;;1.47;0.90;;;24.80;73.40;;;;;;5002408;28;20500;-76
2022/08/15 00:20:10;;;;;;;1.43;0.83;;;24.80;73.60;;;;;;5007950;28;20559;-76
2022/08/15 00:22:44;;;;;;;1.50;0.90;;;24.70;73.80;;;;;;5012339;28;20493;-76
2022/08/15 00:25:11;;;;;;;1.43;0.90;;;24.70;73.50;;;;;;5008102;28;20948;-76
2022/08/15 00:27:38;;;;;;;1.50;0.90;;;24.70;72.90;;;;;;5012109;28;20498;-76
2022/08/15 00:30:06;;;;;;;1.47;0.90;;;24.70;72.90;;;;;;5009906;28;20949;-77
2022/08/15 00:32:36;;;;;;;1.50;1.10;;;24.70;72.70;;;;;;5011294;28;20483;-77
2022/08/15 00:35:35;;;;;;;1.47;0.90;;;24.70;72.80;;;;;;5009137;28;20467;-77
2022/08/15 00:37:55;;;;;;;1.50;1.10;;;24.60;72.30;;;;;;5012621;28;20999;-77
2022/08/15 00:40:22;;;;;;;1.43;0.90;;;24.60;72.10;;;;;;5008557;28;20841;-77
2022/08/15 00:42:49;;;;;;;1.43;0.90;;;24.60;71.90;;;;;;5013292;28;20475;-77
2022/08/15 00:45:16;;;;;;;1.43;0.90;;;24.60;72.20;;;;;;5008036;28;20464;-77
2022/08/15 00:48:41;;;;;;;1.47;0.90;;;24.60;72.50;;;;;;5011774;28;20490;-77
2022/08/15 00:50:30;;;;;;;1.43;0.90;;;24.60;71.90;;;;;;5008531;28;20456;-76
2022/08/15 00:52:59;;;;;;;1.50;0.90;;;24.60;71.80;;;;;;5012946;28;20570;-76
2022/08/15 00:55:28;;;;;;;1.47;0.93;;;24.60;72.00;;;;;;5007864;28;20886;-76
2022/08/15 00:57:55;;;;;;;1.43;0.80;;;24.60;72.10;;;;;;5012815;28;20565;-76
2022/08/15 01:00:26;;;;;;;1.50;1.10;;;24.60;71.40;;;;;;5011262;28;20460;-76
2022/08/15 01:02:55;;;;;;;1.43;0.87;;;24.60;72.10;;;;;;5012949;28;20486;-77
2022/08/15 01:05:22;;;;;;;1.47;0.90;;;24.50;71.80;;;;;;5008320;28;20464;-77
2022/08/15 01:07:49;;;;;;;1.40;0.90;;;24.50;71.80;;;;;;5012746;28;20486;-77
2022/08/15 01:10:17;;;;;;;1.43;0.80;;;24.50;72.60;;;;;;5008018;28;20460;-77
2022/08/15 01:12:44;;;;;;;1.50;0.83;;;24.50;71.90;;;;;;5012049;28;20486;-76
2022/08/15 01:15:13;;;;;;;1.47;0.90;;;24.50;71.00;;;;;;5007657;28;20464;-77
2022/08/15 01:17:41;;;;;;;1.40;0.90;;;24.40;70.90;;;;;;5012365;28;20879;-77
2022/08/15 01:20:14;;;;;;;1.43;0.90;;;24.40;71.10;;;;;;5008392;28;20468;-75
2022/08/15 01:23:04;;;;;;;1.50;0.90;;;24.40;71.10;;;;;;5006654;28;20864;-75
2022/08/15 01:25:38;;;;;;;1.43;0.90;;;24.30;71.50;;;;;;5007076;28;20483;-75
2022/08/15 01:28:07;;;;;;;1.43;0.90;;;24.30;71.70;;;;;;4995197;28;20871;-76
2022/08/15 01:30:41;;;;;;;1.47;0.83;;;24.30;71.80;;;;;;5007858;28;20471;-75
2022/08/15 01:33:09;;;;;;;1.43;0.80;;;24.30;71.60;;;;;;5013062;28;20850;-75
2022/08/15 01:35:39;;;;;;;1.43;0.80;;;24.30;71.80;;;;;;5009766;28;20464;-77
2022/08/15 01:38:25;;;;;;;1.47;0.90;;;24.30;72.10;;;;;;5015762;28;20931;-76
2022/08/15 01:41:02;;;;;;;1.47;0.83;;;24.30;72.10;;;;;;4998414;28;20995;-76
2022/08/15 01:43:34;;;;;;;1.40;0.90;;;24.30;72.10;;;;;;5020315;28;20456;-76
2022/08/15 01:46:06;;;;;;;1.40;0.90;;;24.30;72.20;;;;;;4999314;28;20464;-76
2022/08/15 01:48:40;;;;;;;1.47;0.90;;;24.30;72.40;;;;;;5020142;28;20494;-77
2022/08/15 01:51:10;;;;;;;1.47;0.90;;;24.30;72.50;;;;;;4998117;28;20498;-78
2022/08/15 01:53:42;;;;;;;1.43;0.83;;;24.30;72.90;;;;;;5018423;28;20488;-77
2022/08/15 01:56:15;;;;;;;1.40;0.90;;;24.30;72.50;;;;;;4999660;28;20518;-76
2022/08/15 01:58:45;;;;;;;1.47;0.90;;;24.30;73.50;;;;;;5020650;28;21294;-76
2022/08/15 02:01:14;;;;;;;1.40;0.87;;;24.30;73.80;;;;;;5005252;28;20487;-76
2022/08/15 02:03:43;;;;;;;1.47;0.87;;;24.30;73.60;;;;;;5023497;28;20500;-76
2022/08/15 02:06:12;;;;;;;1.47;0.90;;;24.20;74.10;;;;;;5004068;28;20511;-77
2022/08/15 02:08:40;;;;;;;1.43;0.90;;;24.20;74.20;;;;;;5022611;28;20546;-77
2022/08/15 02:11:11;;;;;;;1.40;0.80;;;24.20;73.80;;;;;;5003707;28;22010;-76
2022/08/15 02:13:39;;;;;;;1.47;0.90;;;24.20;74.10;;;;;;5023237;28;20488;-76
2022/08/15 02:16:06;;;;;;;1.50;0.80;;;24.10;74.60;;;;;;5003578;28;20484;-76
2022/08/15 02:18:33;;;;;;;1.43;0.90;;;24.10;74.60;;;;;;5023967;28;20491;-76
2022/08/15 02:21:00;;;;;;;1.43;0.90;;;24.10;74.30;;;;;;5002649;28;20467;-77
2022/08/15 02:23:27;;;;;;;1.47;0.90;;;24.10;74.50;;;;;;5024302;28;20464;-75
2022/08/15 02:25:55;;;;;;;1.47;0.90;;;24.10;75.20;;;;;;4998982;28;20472;-76
2022/08/15 02:28:25;;;;;;;1.47;0.90;;;24.10;75.50;;;;;;5024428;28;20480;-76
2022/08/15 02:30:53;;;;;;;1.43;0.83;;;24.10;75.70;;;;;;5002750;28;20547;-76
2022/08/15 02:33:22;;;;;;;1.47;0.90;;;24.00;75.60;;;;;;5024599;28;20495;-76
2022/08/15 02:35:51;;;;;;;1.43;0.90;;;24.10;74.80;;;;;;5000398;28;20460;-77
2022/08/15 02:38:18;;;;;;;1.50;0.90;;;24.00;75.90;;;;;;5025041;28;20467;-76
2022/08/15 02:40:45;;;;;;;1.50;1.00;;;24.00;75.60;;;;;;5010567;28;20456;-76
2022/08/15 02:43:14;;;;;;;2.70;2.50;;;24.00;75.20;;;;;;4983852;28;20468;-76
2022/08/15 02:45:47;;;;;;;1.40;0.90;;;24.00;75.60;;;;;;5011216;28;20546;-75
2022/08/15 02:48:15;;;;;;;1.43;0.90;;;24.00;75.40;;;;;;4983487;28;20479;-75
2022/08/15 02:50:46;;;;;;;1.50;0.90;;;24.00;75.50;;;;;;5011045;28;20466;-76
2022/08/15 02:53:16;;;;;;;1.47;0.90;;;24.00;75.60;;;;;;4982722;28;20491;-75
2022/08/15 02:55:44;;;;;;;1.43;0.83;;;24.00;76.10;;;;;;5010808;28;20460;-76
2022/08/15 02:58:12;;;;;;;1.40;0.90;;;24.00;76.10;;;;;;5014823;28;20557;-76
2022/08/15 03:00:41;;;;;;;1.47;0.90;;;24.00;75.70;;;;;;5010427;28;20460;-76
2022/08/15 03:03:11;;;;;;;1.40;0.90;;;24.00;76.00;;;;;;5015231;28;20484;-76
2022/08/15 03:05:40;;;;;;;1.47;0.90;;;23.90;76.40;;;;;;5010425;28;20468;-77
2022/08/15 03:08:08;;;;;;;1.43;0.90;;;23.90;77.00;;;;;;5014878;28;20495;-77
2022/08/15 03:10:37;;;;;;;1.40;0.90;;;23.80;77.20;;;;;;5009368;28;20460;-76
2022/08/15 03:13:06;;;;;;;1.47;0.90;;;23.80;77.20;;;;;;5014828;28;20486;-77
2022/08/15 03:15:41;;;;;;;1.43;0.90;;;23.80;77.60;;;;;;5010198;28;20470;-76
2022/08/15 03:18:09;;;;;;;1.43;0.90;;;23.80;77.90;;;;;;5015058;28;20497;-76
2022/08/15 03:20:37;;;;;;;1.43;0.90;;;23.80;77.50;;;;;;5010159;28;20468;-77
2022/08/15 03:23:06;;;;;;;1.50;1.20;;;23.80;77.00;;;;;;5013677;28;20476;-76
2022/08/15 03:25:38;;;;;;;1.43;0.90;;;23.80;77.60;;;;;;5009763;28;20460;-76
2022/08/15 03:28:05;;;;;;;1.50;0.90;;;23.80;78.10;;;;;;5013665;28;20501;-76
2022/08/15 03:30:32;;;;;;;1.50;0.90;;;23.70;78.00;;;;;;5010434;28;20550;-77
2022/08/15 03:32:59;;;;;;;1.43;0.90;;;23.70;78.20;;;;;;5014579;28;21034;-77
2022/08/15 03:35:30;;;;;;;1.50;1.00;;;23.70;78.30;;;;;;5006321;28;20464;-77
2022/08/15 03:37:58;;;;;;;1.43;0.90;;;23.70;77.50;;;;;;5014829;28;20482;-77
2022/08/15 03:40:25;;;;;;;1.43;0.90;;;23.80;77.60;;;;;;5009916;28;20468;-77
2022/08/15 03:42:53;;;;;;;1.40;0.90;;;23.80;77.60;;;;;;5015633;28;20574;-76
2022/08/15 03:45:21;;;;;;;1.40;0.90;;;23.80;77.20;;;;;;5010420;28;20983;-77
2022/08/15 03:47:48;;;;;;;1.43;0.87;;;23.80;77.20;;;;;;5015044;28;20572;-76
2022/08/15 03:50:15;;;;;;;1.50;0.90;;;23.90;77.50;;;;;;5009931;28;20464;-77
2022/08/15 03:52:51;;;;;;;1.50;0.90;;;23.90;77.20;;;;;;5013449;28;20487;-76
2022/08/15 03:55:19;;;;;;;1.40;0.90;;;23.90;77.20;;;;;;5009075;28;20463;-76
2022/08/15 03:57:46;;;;;;;1.43;0.90;;;23.90;77.00;;;;;;5013732;28;20497;-76
2022/08/15 04:00:16;;;;;;;1.43;0.90;;;24.00;76.30;;;;;;5008998;28;20547;-76
2022/08/15 04:02:43;;;;;;;1.43;0.80;;;24.00;76.70;;;;;;5013772;28;21023;-76
2022/08/15 04:05:11;;;;;;;1.50;0.90;;;24.00;76.50;;;;;;5009319;28;21008;-76
2022/08/15 04:07:39;;;;;;;1.43;0.87;;;24.00;76.40;;;;;;5013497;28;20479;-76
2022/08/15 04:10:10;;;;;;;1.43;0.90;;;24.00;76.60;;;;;;5010808;28;20463;-75
2022/08/15 04:12:41;;;;;;;1.40;0.90;;;24.00;77.30;;;;;;5018537;28;20510;-77
2022/08/15 04:15:12;;;;;;;1.47;0.90;;;24.00;77.40;;;;;;5015323;28;20471;-76
2022/08/15 04:17:39;;;;;;;1.57;1.10;;;24.00;76.90;;;;;;5017371;28;20483;-78
2022/08/15 04:20:09;;;;;;;1.47;0.90;;;24.00;76.60;;;;;;5010312;28;20460;-76
2022/08/15 04:22:38;;;;;;;1.40;0.90;;;24.00;76.80;;;;;;5012212;28;20494;-78
2022/08/15 04:25:09;;;;;;;1.47;0.90;;;24.00;76.80;;;;;;5009145;28;20466;-78
2022/08/15 04:27:36;;;;;;;1.40;0.87;;;24.00;76.90;;;;;;5014400;28;21058;-77
2022/08/15 04:30:04;;;;;;;1.40;0.90;;;24.00;76.60;;;;;;5008886;28;20461;-77
2022/08/15 04:32:31;;;;;;;1.43;0.90;;;24.00;76.80;;;;;;5011266;28;20486;-76
2022/08/15 04:34:59;;;;;;;1.43;0.90;;;24.00;77.00;;;;;;5010472;28;20468;-77
2022/08/15 04:37:26;;;;;;;1.40;0.87;;;24.00;77.20;;;;;;5011283;28;20521;-77
2022/08/15 04:39:54;;;;;;;1.40;0.90;;;24.00;77.10;;;;;;5013380;28;20805;-76
2022/08/15 04:42:25;;;;;;;1.40;0.90;;;24.00;77.40;;;;;;5017561;28;20942;-76
2022/08/15 04:44:53;;;;;;;1.40;0.80;;;24.00;78.20;;;;;;5019737;28;20867;-77
2022/08/15 04:47:20;;;;;;;1.47;0.90;;;24.00;78.00;;;;;;5010383;28;20976;-76
2022/08/15 04:49:47;;;;;;;1.43;0.90;;;24.00;77.60;;;;;;5011537;28;20464;-76
2022/08/15 04:52:17;;;;;;;1.43;0.90;;;24.00;77.80;;;;;;5010353;28;20483;-77
2022/08/15 04:54:45;;;;;;;1.43;0.87;;;24.00;77.50;;;;;;5015823;28;20513;-77
2022/08/15 04:57:15;;;;;;;1.40;0.90;;;24.00;78.70;;;;;;5018496;28;20982;-77
2022/08/15 04:59:43;;;;;;;1.40;0.90;;;24.00;78.00;;;;;;5012695;28;20503;-79
2022/08/15 05:02:13;;;;;;;1.40;0.90;;;24.00;78.40;;;;;;5009864;28;20478;-77
2022/08/15 05:04:40;;;;;;;1.60;1.30;;;24.00;78.50;;;;;;5005360;28;20486;-78
2022/08/15 05:07:08;;;;;;;1.40;0.90;;;23.90;78.50;;;;;;5008350;28;20613;-77
2022/08/15 05:09:35;;;;;;;1.40;0.90;;;23.90;78.90;;;;;;5012694;28;20516;-78
2022/08/15 05:12:03;;;;;;;1.40;0.87;;;23.80;78.70;;;;;;5006222;28;20561;-77
2022/08/15 05:14:30;;;;;;;1.43;0.90;;;23.90;78.60;;;;;;5012402;28;20571;-76
2022/08/15 05:16:58;;;;;;;1.43;0.80;;;23.90;78.50;;;;;;5005495;28;20507;-77
2022/08/15 05:19:25;;;;;;;1.40;0.90;;;23.90;78.20;;;;;;5011630;28;20582;-77
2022/08/15 05:21:52;;;;;;;1.47;0.90;;;24.00;78.40;;;;;;5010866;28;20486;-77
2022/08/15 05:24:29;;;;;;;1.40;0.90;;;24.00;78.00;;;;;;5026982;28;20499;-78
2022/08/15 05:26:55;;;;;;;1.40;0.80;;;24.00;78.10;;;;;;5006386;28;20479;-77
2022/08/15 05:29:22;;;;;;;1.40;0.90;;;24.00;78.20;;;;;;5013356;28;20571;-77
2022/08/15 05:31:49;;;;;;;1.40;0.80;;;24.00;78.10;;;;;;5004295;28;20812;-77
2022/08/15 05:34:17;;;;;;;1.40;0.90;;;24.00;78.50;;;;;;5017265;28;20488;-77
2022/08/15 05:36:45;;;;;;;1.40;0.90;;;24.00;78.40;;;;;;5006131;28;20560;-77
2022/08/15 05:39:21;;;;;;;1.40;0.80;;;24.00;78.40;;;;;;5021029;28;20999;-77
2022/08/15 05:41:56;;;;;;;1.47;0.90;;;24.00;79.30;;;;;;5005016;28;20478;-77
2022/08/15 05:44:29;;;;;;;1.43;0.90;;;24.10;78.60;;;;;;5015771;28;20464;-77
2022/08/15 05:47:06;;;;;;;1.43;0.90;;;24.10;78.50;;;;;;5009038;28;20480;-77
2022/08/15 05:49:45;;;;;;;1.47;0.90;;;24.10;78.80;;;;;;5015457;28;20490;-77
2022/08/15 05:52:28;;;;;;;1.40;0.90;;;24.10;78.60;;;;;;5011533;28;20573;-77
2022/08/15 05:55:08;;;;;;;1.40;0.90;;;24.20;78.60;;;;;;5013108;28;20933;-77
2022/08/15 05:57:43;;;;;;;1.43;0.90;;;24.20;78.50;;;;;;5013510;28;21042;-77
2022/08/15 06:00:15;;;;;;;1.47;0.90;;;24.20;78.70;;;;;;5011593;28;20758;-78
2022/08/15 06:02:46;;;;;;;1.40;0.87;;;24.30;78.60;;;;;;5015496;28;20514;-77
2022/08/15 06:05:28;;;;;;;1.40;0.87;;;24.30;78.70;;;;;;5010533;28;20514;-77
2022/08/15 06:07:57;;;;;;;1.47;0.90;;;24.40;78.40;;;;;;5015088;28;20578;-77
2022/08/15 06:10:28;;;;;;;1.40;0.90;;;24.40;78.40;;;;;;5010737;28;20464;-78
2022/08/15 06:13:03;;;;;;;1.40;0.90;;;24.50;78.50;;;;;;5013292;28;21000;-77
2022/08/15 06:15:38;;;;;;;1.40;0.90;;;24.50;78.40;;;;;;5010504;28;21025;-76
2022/08/15 06:18:10;;;;;;;1.40;0.90;;;24.60;79.00;;;;;;5015669;28;21019;-78
2022/08/15 06:20:46;;;;;;;1.43;0.87;;;24.80;78.30;;;;;;5010732;28;20468;-77
2022/08/15 06:23:22;;;;;;;1.47;0.90;;;24.90;78.00;;;;;;4981750;28;20486;-78
2022/08/15 06:25:58;;;;;;;1.47;0.90;;;25.00;77.90;;;;;;5000785;28;20467;-77
2022/08/15 06:28:44;;;;;;;1.47;0.83;;;25.20;77.60;;;;;;5023374;28;20766;-77
2022/08/15 06:31:19;;;;;;;1.47;0.90;;;25.40;78.10;;;;;;4999241;28;21294;-77
2022/08/15 06:33:59;;;;;;;1.50;0.90;;;25.60;77.50;;;;;;5017610;28;20491;-78
2022/08/15 06:36:54;;;;;;;1.50;0.90;;;25.80;77.10;;;;;;5001687;28;20482;-80
2022/08/15 06:39:28;;;;;;;1.43;0.90;;;26.00;76.70;;;;;;5012190;28;20483;-76
2022/08/15 06:42:06;;;;;;;1.50;0.90;;;26.20;76.60;;;;;;5006578;28;20613;-76
2022/08/15 06:44:33;;;;;;;1.50;0.90;;;26.30;76.00;;;;;;5013520;28;20456;-76
2022/08/15 06:47:03;;;;;;;1.50;0.90;;;26.30;75.70;;;;;;5004246;28;20491;-77
2022/08/15 06:49:33;;;;;;;1.47;0.80;;;26.40;75.60;;;;;;5012750;28;20484;-76
2022/08/15 06:52:02;;;;;;;1.50;0.83;;;26.30;75.70;;;;;;5009389;28;20475;-76
2022/08/15 06:54:30;;;;;;;1.47;0.87;;;26.40;75.60;;;;;;5014019;28;20492;-76
2022/08/15 06:57:01;;;;;;;1.47;0.80;;;26.40;75.60;;;;;;5008014;28;20487;-78
2022/08/15 06:59:39;;;;;;;1.43;0.90;;;26.40;76.00;;;;;;5012186;28;20492;-76
2022/08/15 07:02:18;;;;;;;2.47;1.30;;;26.30;76.00;;;;;;5007068;28;20634;-76
2022/08/15 07:04:55;;;;;;;1.60;1.10;;;26.30;76.00;;;;;;5012999;28;20936;-75
2022/08/15 07:07:35;;;;;;;1.47;0.87;;;26.30;76.20;;;;;;5011906;28;20483;-76
2022/08/15 07:10:11;;;;;;;1.40;0.80;;;26.30;76.40;;;;;;5010773;28;20468;-76
2022/08/15 07:12:43;;;;;;;1.50;0.80;;;26.40;76.50;;;;;;5012479;28;20578;-76
2022/08/15 07:15:16;;;;;;;1.43;0.80;;;26.20;76.70;;;;;;5008739;28;20923;-77
2022/08/15 07:17:48;;;;;;;1.47;0.80;;;26.10;77.00;;;;;;5014499;28;20487;-77
2022/08/15 07:20:15;;;;;;;1.43;0.80;;;26.10;77.20;;;;;;5007602;28;20824;-76
2022/08/15 07:22:43;;;;;;;1.43;0.90;;;26.10;77.50;;;;;;5014003;28;20490;-77
2022/08/15 07:25:12;;;;;;;1.47;0.90;;;26.10;77.90;;;;;;5010608;28;20475;-78
2022/08/15 07:27:39;;;;;;;1.47;0.80;;;26.10;78.10;;;;;;5013586;28;20489;-76
2022/08/15 07:30:16;;;;;;;1.43;0.80;;;26.00;78.20;;;;;;5010525;28;20463;-76
2022/08/15 07:32:48;;;;;;;1.43;0.87;;;26.10;78.20;;;;;;5014304;28;20506;-76
2022/08/15 07:35:23;;;;;;;1.47;0.80;;;26.20;78.00;;;;;;5008588;28;20488;-75
2022/08/15 07:37:56;;;;;;;1.43;0.80;;;26.20;78.30;;;;;;5014416;28;20570;-77
2022/08/15 07:40:28;;;;;;;1.43;0.80;;;26.30;78.00;;;;;;5007711;28;20464;-76
2022/08/15 07:42:55;;;;;;;1.50;1.00;;;26.30;78.60;;;;;;5013993;28;20988;-76
2022/08/15 07:45:29;;;;;;;1.47;0.80;;;26.30;78.50;;;;;;5009288;28;20467;-76
2022/08/15 07:47:58;;;;;;;1.50;0.90;;;26.30;78.20;;;;;;5014002;28;20587;-76
2022/08/15 07:50:33;;;;;;;1.43;0.90;;;26.40;78.40;;;;;;5006639;28;20507;-76
2022/08/15 07:53:10;;;;;;;1.50;0.80;;;26.40;78.60;;;;;;5014045;28;20765;-75
2022/08/15 07:55:38;;;;;;;1.50;1.07;;;26.40;78.80;;;;;;5003495;28;20480;-76
2022/08/15 07:58:14;;;;;;;1.47;0.80;;;26.40;78.70;;;;;;5012556;28;20487;-78
2022/08/15 08:00:42;;;;;;;1.43;0.80;;;26.40;78.60;;;;;;5006859;28;20470;-76
2022/08/15 08:03:16;;;;;;;1.47;0.80;;;26.40;78.80;;;;;;5012735;28;20489;-76
2022/08/15 08:05:54;;;;;;;1.43;0.80;;;26.40;78.40;;;;;;5006921;28;20514;-78
2022/08/15 08:08:25;;;;;;;1.43;0.80;;;26.40;78.30;;;;;;5013704;28;21119;-77
2022/08/15 08:10:58;;;;;;;1.47;0.80;;;26.50;78.30;;;;;;4999722;28;20976;-77
2022/08/15 08:13:40;;;;;;;1.47;0.90;;;26.50;78.70;;;;;;5020512;28;21046;-77
2022/08/15 08:16:18;;;;;;;1.50;1.10;;;26.60;78.10;;;;;;5000849;28;20730;-77
2022/08/15 08:18:53;;;;;;;1.47;0.87;;;26.60;78.00;;;;;;5017479;28;20487;-77
2022/08/15 08:21:26;;;;;;;1.40;0.87;;;26.60;78.00;;;;;;5002612;28;20625;-77
2022/08/15 08:24:00;;;;;;;1.47;0.80;;;26.60;78.00;;;;;;5018476;28;20459;-76
2022/08/15 08:26:34;;;;;;;1.47;0.80;;;26.60;78.00;;;;;;5002836;28;20998;-76
2022/08/15 08:29:08;;;;;;;1.47;0.80;;;26.40;78.20;;;;;;5015422;28;21025;-76
2022/08/15 08:31:44;;;;;;;1.43;0.80;;;26.40;78.20;;;;;;5003818;28;20521;-76
2022/08/15 08:34:20;;;;;;;1.47;0.80;;;26.30;78.60;;;;;;5015964;28;20592;-76
2022/08/15 08:36:58;;;;;;;1.43;0.80;;;26.20;78.60;;;;;;5004635;28;20534;-77
2022/08/15 08:39:46;;;;;;;1.50;0.80;;;26.10;78.90;;;;;;5013420;28;20498;-76
2022/08/15 08:42:25;;;;;;;1.43;0.80;;;26.10;78.90;;;;;;5009150;28;20494;-76
2022/08/15 08:45:05;;;;;;;1.43;0.80;;;25.90;79.40;;;;;;5009774;28;20514;-76
2022/08/15 08:47:44;;;;;;;1.47;0.80;;;25.90;79.50;;;;;;5010742;28;20475;-77
2022/08/15 08:50:25;;;;;;;1.43;0.87;;;25.80;79.80;;;;;;5005569;28;20456;-76
2022/08/15 08:53:02;;;;;;;1.43;0.80;;;25.80;80.30;;;;;;5013210;28;20490;-77
2022/08/15 08:55:34;;;;;;;2.47;1.40;;;25.80;80.10;;;;;;5005101;28;20494;-76
2022/08/15 08:58:05;;;;;;;1.43;0.80;;;25.80;80.80;;;;;;5012797;28;20498;-77
2022/08/15 09:00:38;;;;;;;1.50;1.00;;;25.90;80.70;;;;;;5008328;28;20471;-74
2022/08/15 09:03:12;;;;;;;1.47;0.90;;;25.80;80.80;;;;;;5011841;28;20999;-76
2022/08/15 09:05:44;;;;;;;1.47;0.80;;;25.90;80.60;;;;;;5007459;28;20971;-76
2022/08/15 09:08:18;;;;;;;1.43;0.80;;;25.90;80.60;;;;;;5009721;28;20559;-76
2022/08/15 09:10:49;;;;;;;1.47;0.80;;;26.00;81.20;;;;;;5007092;28;20503;-75
2022/08/15 09:13:34;;;;;;;1.43;0.80;;;26.00;80.60;;;;;;4978510;28;20531;-75
2022/08/15 09:16:08;;;;;;;1.47;0.80;;;26.00;81.60;;;;;;4998784;28;20496;-75
2022/08/15 09:18:41;;;;;;;1.90;1.67;;;25.90;81.50;;;;;;5017072;28;20549;-75
2022/08/15 09:21:08;;;;;;;1.47;0.90;;;25.90;82.20;;;;;;4998528;28;20553;-76
2022/08/15 09:23:38;;;;;;;1.47;0.80;;;25.90;81.80;;;;;;5016341;28;20953;-75
2022/08/15 09:26:14;;;;;;;1.43;0.80;;;26.00;81.70;;;;;;4999476;28;20471;-76
2022/08/15 09:28:44;;;;;;;1.47;0.83;;;26.00;82.10;;;;;;5016665;28;20491;-76
2022/08/15 09:31:15;;;;;;;1.73;1.40;;;26.00;82.00;;;;;;5000314;28;20505;-75
2022/08/15 09:34:18;;;;;;;1.43;0.80;;;25.90;81.90;;;;;;5015864;28;20547;-75
2022/08/15 09:37:24;;;;;;;1.47;0.80;;;26.00;82.00;;;;;;5001463;28;20481;-76
2022/08/15 09:40:22;;;;;;;1.43;0.83;;;26.10;82.40;;;;;;5010482;28;20467;-78
2022/08/15 09:43:13;;;;;;;1.50;0.90;;;26.40;81.10;;;;;;5011816;28;20487;-77
2022/08/15 09:45:54;;;;;;;1.43;0.90;;;26.50;82.20;;;;;;5005300;28;20957;-77
2022/08/15 09:48:53;;;;;;;1.47;0.80;;;26.60;82.00;;;;;;5011520;28;20480;-77
2022/08/15 09:51:37;;;;;;;1.47;0.87;;;26.70;81.60;;;;;;4999284;28;20479;-77
2022/08/15 09:54:13;;;;;;;1.47;0.90;;;26.70;81.00;;;;;;5014806;28;20466;-76
2022/08/15 09:56:40;;;;;;;1.43;0.80;;;26.70;80.80;;;;;;5001642;28;20586;-77
2022/08/15 09:59:15;;;;;;;1.43;0.80;;;26.70;80.30;;;;;;5013794;28;20495;-77
2022/08/15 10:01:46;;;;;;;1.47;0.90;;;26.70;80.80;;;;;;5001443;28;20885;-77
2022/08/15 10:04:15;;;;;;;1.47;0.83;;;26.80;80.60;;;;;;5014075;28;20471;-78
2022/08/15 10:07:17;;;;;;;1.43;0.90;;;26.90;80.50;;;;;;5005331;28;21079;-77
2022/08/15 10:10:10;;;;;;;1.43;0.80;;;26.90;80.20;;;;;;5017281;28;20513;-76
2022/08/15 10:12:38;;;;;;;1.47;0.80;;;26.90;80.10;;;;;;5008194;28;20534;-76
2022/08/15 10:15:30;;;;;;;1.47;0.90;;;26.90;80.20;;;;;;5007257;28;20492;-78
2022/08/15 10:17:58;;;;;;;1.47;0.90;;;26.90;80.10;;;;;;5008249;28;20895;-77
2022/08/15 10:20:50;;;;;;;1.47;0.80;;;26.90;80.30;;;;;;5001112;28;20524;-77
2022/08/15 10:23:18;;;;;;;1.50;0.90;;;26.80;80.70;;;;;;4980172;28;20487;-77
2022/08/15 10:25:48;;;;;;;1.60;1.30;;;26.80;80.80;;;;;;5001477;28;20566;-77
2022/08/15 10:28:25;;;;;;;1.50;0.90;;;26.90;80.70;;;;;;4981399;28;20475;-77
2022/08/15 10:31:27;;;;;;;1.47;0.90;;;26.90;80.90;;;;;;5000201;28;20471;-77
2022/08/15 10:33:59;;;;;;;1.43;0.87;;;26.90;80.80;;;;;;5016841;28;20495;-77
2022/08/15 10:36:29;;;;;;;1.50;0.80;;;27.00;80.70;;;;;;5003590;28;20474;-77
2022/08/15 10:39:12;;;;;;;1.40;0.83;;;27.00;80.60;;;;;;5017223;28;21031;-77
2022/08/15 10:42:24;;;;;;;1.50;0.80;;;27.00;80.80;;;;;;5006517;28;20510;-78
2022/08/15 10:45:00;;;;;;;1.47;0.80;;;27.00;80.90;;;;;;5013153;28;20739;-76
2022/08/15 10:47:34;;;;;;;1.43;0.80;;;27.00;80.90;;;;;;5009724;28;21185;-76
2022/08/15 10:50:14;;;;;;;1.47;0.80;;;27.10;81.20;;;;;;5009937;28;20467;-76
2022/08/15 10:52:59;;;;;;;1.47;0.90;;;27.20;81.00;;;;;;5017356;28;20556;-77
2022/08/15 10:55:31;;;;;;;1.50;0.90;;;27.20;80.30;;;;;;5007208;28;20549;-78
2022/08/15 10:58:03;;;;;;;1.50;0.90;;;27.30;80.70;;;;;;5014181;28;20829;-77
2022/08/15 11:00:43;;;;;;;1.50;0.83;;;27.30;80.80;;;;;;5009359;28;20474;-77
2022/08/15 11:03:18;;;;;;;1.50;0.87;;;27.40;80.30;;;;;;5013841;28;20765;-77
2022/08/15 11:05:55;;;;;;;1.40;0.87;;;27.40;79.90;;;;;;5009646;28;20518;-77
2022/08/15 11:08:23;;;;;;;1.47;0.80;;;27.30;79.70;;;;;;4981138;28;20963;-77
2022/08/15 11:10:50;;;;;;;2.33;1.73;;;27.30;79.60;;;;;;4998861;28;20468;-78
2022/08/15 11:13:24;;;;;;;1.43;0.80;;;27.20;79.70;;;;;;5022779;28;20991;-77
2022/08/15 11:15:55;;;;;;;1.50;0.80;;;27.10;80.30;;;;;;4998457;28;20491;-76
2022/08/15 11:18:28;;;;;;;1.47;0.80;;;27.00;80.70;;;;;;5021704;28;20614;-77
2022/08/15 11:21:01;;;;;;;1.47;0.80;;;26.80;81.10;;;;;;4999558;28;20470;-77
2022/08/15 11:23:35;;;;;;;1.50;0.90;;;26.60;81.50;;;;;;5022255;28;20465;-77
2022/08/15 11:26:04;;;;;;;1.47;0.80;;;26.50;81.90;;;;;;4999345;28;20791;-76
2022/08/15 11:31:57;;;;;;;1.43;0.90;;;26.30;83.90;;;;;;4911435;28;20548;-75
2022/08/15 11:34:28;;;;;;;1.50;0.80;;;26.20;85.00;;;;;;5005976;28;21039;-76
2022/08/15 11:36:59;;;;;;;2.13;1.20;;;26.10;85.20;;;;;;5003578;28;20471;-76
2022/08/15 11:39:30;;;;;;;1.50;0.90;;;26.00;85.90;;;;;;5013330;28;21022;-75
2022/08/15 11:42:01;;;;;;;1.47;0.90;;;26.00;85.90;;;;;;5004416;28;20668;-76
2022/08/15 11:44:37;;;;;;;1.70;1.50;;;25.90;86.20;;;;;;5013829;28;20464;-76
2022/08/15 11:47:06;;;;;;;1.43;0.80;;;25.90;86.70;;;;;;5005890;28;20781;-75
2022/08/15 11:49:42;;;;;;;1.47;0.90;;;25.90;86.00;;;;;;5012685;28;20549;-76
2022/08/15 11:52:10;;;;;;;1.47;0.80;;;26.00;85.60;;;;;;5007159;28;21025;-76
2022/08/15 11:54:38;;;;;;;1.43;0.80;;;26.00;84.90;;;;;;5012557;28;20808;-76
2022/08/15 11:57:07;;;;;;;1.47;0.80;;;26.00;84.50;;;;;;5005173;28;20902;-76
2022/08/15 11:59:36;;;;;;;1.47;0.80;;;26.10;84.60;;;;;;5013220;28;20524;-77
2022/08/15 12:02:12;;;;;;;1.47;0.80;;;26.10;84.30;;;;;;5000183;28;20483;-76
2022/08/15 12:04:42;;;;;;;1.47;0.80;;;26.10;84.20;;;;;;5009610;28;20472;-77
2022/08/15 12:07:13;;;;;;;1.43;0.80;;;26.20;83.80;;;;;;5003431;28;20586;-76
2022/08/15 12:09:49;;;;;;;1.47;0.80;;;26.20;83.50;;;;;;5010391;28;21002;-77
2022/08/15 12:12:31;;;;;;;1.43;0.80;;;26.20;83.10;;;;;;5004468;28;20573;-77
2022/08/15 12:15:02;;;;;;;1.50;0.90;;;26.20;82.90;;;;;;5008133;28;20471;-77
2022/08/15 12:17:32;;;;;;;1.47;0.90;;;26.30;83.20;;;;;;5008511;28;20582;-77
2022/08/15 12:20:00;;;;;;;1.47;0.90;;;26.40;82.90;;;;;;5005696;28;20953;-77
2022/08/15 12:22:34;;;;;;;1.43;0.80;;;26.50;82.20;;;;;;5008251;28;21169;-78
2022/08/15 12:25:02;;;;;;;1.50;0.87;;;26.50;82.40;;;;;;5008372;28;20464;-77
2022/08/15 12:27:29;;;;;;;1.47;0.80;;;26.40;82.20;;;;;;5007054;28;20505;-77
2022/08/15 12:29:56;;;;;;;1.47;0.80;;;26.50;82.40;;;;;;5005653;28;21051;-77
2022/08/15 12:32:24;;;;;;;1.43;0.80;;;26.60;82.60;;;;;;5007659;28;20487;-77
2022/08/15 12:34:54;;;;;;;1.50;0.80;;;26.70;81.90;;;;;;5007993;28;20506;-78
2022/08/15 12:37:25;;;;;;;1.47;0.80;;;26.90;81.50;;;;;;5008079;28;20482;-79
2022/08/15 12:39:54;;;;;;;1.43;0.80;;;27.00;80.90;;;;;;5007509;28;20460;-77
2022/08/15 12:42:25;;;;;;;1.47;0.90;;;27.10;80.50;;;;;;5007942;28;20727;-78
2022/08/15 12:44:55;;;;;;;1.43;0.90;;;27.20;79.90;;;;;;5008237;28;20473;-78
2022/08/15 12:47:23;;;;;;;1.47;0.80;;;27.20;79.10;;;;;;5006587;28;20638;-77
2022/08/15 12:49:52;;;;;;;1.50;0.87;;;27.20;78.90;;;;;;5007847;28;20459;-77
2022/08/15 12:52:22;;;;;;;1.43;0.80;;;27.10;78.80;;;;;;5007329;28;20556;-77
2022/08/15 12:54:51;;;;;;;1.47;0.90;;;27.10;79.30;;;;;;5005868;28;20492;-77
2022/08/15 12:57:19;;;;;;;1.43;0.80;;;27.00;79.20;;;;;;5006067;28;20490;-78
2022/08/15 12:59:46;;;;;;;1.43;0.80;;;26.80;79.80;;;;;;5007976;28;20570;-77
2022/08/15 13:02:15;;;;;;;3.57;1.53;;;26.60;80.50;;;;;;5003260;28;20586;-77
2022/08/15 13:04:46;;;;;;;1.47;0.80;;;26.50;81.00;;;;;;5010276;28;20456;-79
2022/08/15 13:07:16;;;;;;;1.50;0.80;;;26.40;81.20;;;;;;5005315;28;20487;-76
2022/08/15 13:09:44;;;;;;;1.47;0.80;;;26.30;81.40;;;;;;5008781;28;20494;-76
2022/08/15 13:12:11;;;;;;;1.50;0.80;;;26.30;81.30;;;;;;5004996;28;20505;-77
2022/08/15 13:14:39;;;;;;;1.47;0.90;;;26.40;81.20;;;;;;5009934;28;20474;-77
2022/08/15 13:17:07;;;;;;;1.50;0.80;;;26.40;81.10;;;;;;5004508;28;20565;-77